Time;durP1;ratioP1;P1;durP2;ratioP2;P2;SDS_P1;SDS_P2;PMS_P1;PMS_P2;Temp;Humidity;BMP_temperature;BMP_pressure;BME280_temperature;BME280_humidity;BME280_pressure;Samples;Min_cycle;Max_cycle;Signal;HPM_P1;HPM_P2
2022/06/08 00:02:15;;;;;;;1.60;1.50;;;20.90;66.50;;;;;;5030052;28;20432;-44
2022/06/08 00:04:41;;;;;;;2.03;1.80;;;20.90;66.20;;;;;;5030064;28;20492;-45
2022/06/08 00:07:07;;;;;;;3.27;1.90;;;20.90;65.90;;;;;;5029842;28;20432;-46
2022/06/08 00:09:33;;;;;;;2.50;2.10;;;20.90;66.10;;;;;;5030521;28;20435;-43
2022/06/08 00:12:00;;;;;;;2.63;1.57;;;20.90;66.10;;;;;;5028228;28;20907;-43
2022/06/08 00:14:25;;;;;;;2.03;1.93;;;20.80;66.00;;;;;;5029839;28;20424;-44
2022/06/08 00:16:51;;;;;;;5.83;2.00;;;20.80;66.00;;;;;;5029806;28;20559;-44
2022/06/08 00:19:17;;;;;;;2.80;2.23;;;20.70;66.00;;;;;;5028851;28;20653;-44
2022/06/08 00:21:42;;;;;;;2.03;1.83;;;20.70;65.90;;;;;;5029722;28;20197;-44
2022/06/08 00:24:08;;;;;;;2.00;1.90;;;20.80;66.00;;;;;;5029591;28;20225;-48
2022/06/08 00:26:36;;;;;;;1.83;1.60;;;20.70;65.60;;;;;;5029822;28;20424;-44
2022/06/08 00:29:02;;;;;;;2.13;1.93;;;20.80;66.40;;;;;;5029840;28;20200;-44
2022/06/08 00:31:28;;;;;;;1.93;1.70;;;20.70;65.70;;;;;;5029565;28;20432;-45
2022/06/08 00:33:53;;;;;;;2.20;2.00;;;20.40;66.80;;;;;;5028989;28;20478;-45
2022/06/08 00:36:19;;;;;;;2.17;1.97;;;20.40;67.00;;;;;;5029535;28;20263;-43
2022/06/08 00:38:44;;;;;;;3.57;1.57;;;20.30;67.70;;;;;;5028513;28;20213;-44
2022/06/08 00:41:42;;;;;;;3.37;2.00;;;20.30;68.00;;;;;;5029318;28;20296;-45
2022/06/08 00:44:17;;;;;;;2.20;2.00;;;20.10;68.60;;;;;;5021916;28;20239;-44
2022/06/08 00:46:44;;;;;;;2.73;1.80;;;20.10;68.70;;;;;;5029222;28;20919;-45
2022/06/08 00:49:20;;;;;;;2.47;2.27;;;20.10;68.70;;;;;;5029816;28;20424;-43
2022/06/08 00:51:47;;;;;;;2.13;2.00;;;19.90;69.70;;;;;;5029105;28;20547;-43
2022/06/08 00:54:21;;;;;;;2.03;1.93;;;19.80;70.00;;;;;;5029398;28;20424;-45
2022/06/08 00:56:52;;;;;;;1.93;1.83;;;19.80;70.20;;;;;;5029107;28;20428;-45
2022/06/08 00:59:17;;;;;;;2.17;1.97;;;19.90;69.70;;;;;;5029766;28;20489;-46
2022/06/08 01:01:43;;;;;;;2.07;1.40;;;20.10;69.10;;;;;;5029051;28;20559;-45
2022/06/08 01:04:13;;;;;;;2.93;1.90;;;20.20;68.50;;;;;;5028759;28;20757;-43
2022/06/08 01:06:41;;;;;;;3.40;2.33;;;20.40;68.00;;;;;;5028344;28;20932;-44
2022/06/08 01:09:29;;;;;;;1.83;1.70;;;20.40;67.50;;;;;;5029693;28;20425;-45
2022/06/08 01:11:58;;;;;;;2.53;1.93;;;20.30;67.20;;;;;;5029629;28;20424;-43
2022/06/08 01:14:26;;;;;;;2.30;2.10;;;20.30;68.10;;;;;;5029222;28;20427;-44
2022/06/08 01:17:06;;;;;;;1.90;1.80;;;20.30;67.10;;;;;;5029202;28;20443;-45
2022/06/08 01:19:36;;;;;;;2.23;1.67;;;20.40;67.10;;;;;;5029775;28;20634;-45
2022/06/08 01:22:04;;;;;;;3.23;2.00;;;20.50;67.10;;;;;;5029381;28;20927;-45
2022/06/08 01:24:31;;;;;;;2.13;1.90;;;20.40;66.90;;;;;;5029015;28;20480;-45
2022/06/08 01:27:22;;;;;;;2.20;2.10;;;20.30;67.10;;;;;;5028935;28;20443;-44
2022/06/08 01:30:23;;;;;;;2.20;1.90;;;20.20;67.70;;;;;;5029824;28;20519;-44
2022/06/08 01:33:20;;;;;;;2.10;1.83;;;20.20;67.60;;;;;;5027559;28;20436;-43
2022/06/08 01:36:04;;;;;;;2.23;2.07;;;20.00;67.80;;;;;;5028781;28;20425;-44
2022/06/08 01:38:57;;;;;;;3.17;1.80;;;19.90;68.40;;;;;;5029350;28;20949;-43
2022/06/08 01:41:50;;;;;;;2.00;1.80;;;19.90;68.50;;;;;;5028958;28;21222;-43
2022/06/08 01:44:15;;;;;;;2.70;2.50;;;19.90;68.20;;;;;;5028744;28;20946;-43
2022/06/08 01:47:11;;;;;;;5.47;2.63;;;19.90;68.30;;;;;;5030810;28;20440;-43
2022/06/08 01:50:06;;;;;;;2.30;2.10;;;19.90;67.80;;;;;;5033155;28;20276;-43
2022/06/08 01:52:46;;;;;;;2.50;2.30;;;19.90;68.00;;;;;;5032655;28;20440;-43
2022/06/08 01:55:25;;;;;;;1.73;1.63;;;19.70;68.00;;;;;;5032479;28;20443;-43
2022/06/08 01:58:10;;;;;;;2.03;1.87;;;19.90;68.10;;;;;;5028472;28;20428;-43
2022/06/08 02:00:42;;;;;;;6.50;2.00;;;19.90;67.60;;;;;;5032063;28;20995;-43
2022/06/08 02:03:36;;;;;;;2.60;1.90;;;19.90;67.40;;;;;;5032297;28;20438;-43
2022/06/08 02:06:06;;;;;;;2.17;2.00;;;19.90;67.20;;;;;;5032120;28;20475;-43
2022/06/08 02:08:35;;;;;;;2.57;1.80;;;19.80;68.30;;;;;;5032729;28;20435;-44
2022/06/08 02:11:12;;;;;;;4.37;2.13;;;19.80;68.00;;;;;;5032101;28;20428;-44
2022/06/08 02:13:41;;;;;;;1.70;1.60;;;19.90;67.60;;;;;;5032484;28;20435;-43
2022/06/08 02:16:17;;;;;;;4.63;1.73;;;19.90;67.40;;;;;;5031983;28;21033;-46
2022/06/08 02:18:56;;;;;;;2.00;1.80;;;19.90;67.10;;;;;;5032413;28;20435;-43
2022/06/08 02:21:48;;;;;;;2.43;2.30;;;19.80;67.10;;;;;;5031613;28;20440;-44
2022/06/08 02:24:35;;;;;;;2.63;1.97;;;20.00;66.90;;;;;;5026273;28;20482;-43
2022/06/08 02:27:13;;;;;;;2.07;1.97;;;19.70;67.60;;;;;;5030219;28;20884;-43
2022/06/08 02:30:09;;;;;;;2.80;2.10;;;19.80;68.00;;;;;;5032079;28;20440;-46
2022/06/08 02:35:37;;;;;;;2.40;2.20;;;19.70;67.90;;;;;;5032001;28;20455;-43
2022/06/08 02:38:10;;;;;;;2.27;1.90;;;19.60;68.40;;;;;;5031657;28;20428;-44
2022/06/08 02:40:40;;;;;;;3.57;2.43;;;19.50;68.60;;;;;;5031728;28;20431;-43
2022/06/08 02:43:23;;;;;;;4.33;2.13;;;19.40;68.80;;;;;;5031414;28;20432;-44
2022/06/08 02:45:58;;;;;;;1.93;1.80;;;19.50;68.80;;;;;;5031141;28;20480;-43
2022/06/08 02:48:24;;;;;;;2.20;2.10;;;19.70;68.20;;;;;;5031888;28;20442;-43
2022/06/08 02:50:52;;;;;;;3.03;2.23;;;19.70;67.60;;;;;;5031407;28;20416;-44
2022/06/08 02:53:18;;;;;;;4.97;1.87;;;19.70;67.40;;;;;;5030708;28;20216;-43
2022/06/08 02:55:50;;;;;;;4.70;2.03;;;19.50;67.60;;;;;;5030893;28;20424;-44
2022/06/08 02:58:27;;;;;;;2.07;1.87;;;19.20;68.50;;;;;;5030878;28;20432;-43
2022/06/08 03:01:00;;;;;;;1.90;1.73;;;19.20;68.70;;;;;;5030708;28;20992;-43
2022/06/08 03:03:54;;;;;;;3.23;2.00;;;19.30;67.90;;;;;;5031396;28;20443;-44
2022/06/08 03:06:27;;;;;;;4.40;2.03;;;19.30;68.10;;;;;;5031283;28;20518;-45
2022/06/08 03:08:59;;;;;;;2.10;2.00;;;19.30;67.80;;;;;;5031715;28;20522;-44
2022/06/08 03:11:33;;;;;;;3.00;2.20;;;19.30;67.70;;;;;;5030814;28;20510;-46
2022/06/08 03:14:02;;;;;;;3.10;2.50;;;19.30;67.80;;;;;;5031070;28;20432;-45
2022/06/08 03:16:39;;;;;;;1.97;1.77;;;19.10;68.10;;;;;;5030851;28;20432;-43
2022/06/08 03:19:05;;;;;;;2.63;2.23;;;19.00;68.80;;;;;;5029772;28;20431;-43
2022/06/08 03:21:31;;;;;;;2.10;1.90;;;19.00;69.40;;;;;;5030745;28;20431;-44
2022/06/08 03:23:59;;;;;;;3.20;2.67;;;18.90;69.10;;;;;;5030636;28;20436;-44
2022/06/08 03:26:27;;;;;;;6.53;2.37;;;18.90;69.50;;;;;;5030674;28;20450;-45
2022/06/08 03:28:52;;;;;;;2.60;2.40;;;18.90;69.20;;;;;;5030871;28;20424;-44
2022/06/08 03:31:18;;;;;;;3.13;2.10;;;18.90;69.00;;;;;;5030739;28;20431;-45
2022/06/08 03:33:44;;;;;;;4.30;2.20;;;18.90;69.10;;;;;;5030775;28;20201;-43
2022/06/08 03:36:11;;;;;;;3.67;2.63;;;18.80;69.60;;;;;;5030770;28;20189;-43
2022/06/08 03:38:36;;;;;;;3.40;2.23;;;18.80;69.20;;;;;;5030775;28;20284;-43
2022/06/08 03:41:02;;;;;;;2.83;2.63;;;19.00;69.00;;;;;;5030543;28;20530;-43
2022/06/08 03:43:28;;;;;;;2.80;2.60;;;19.00;68.30;;;;;;5030574;28;20207;-44
2022/06/08 03:45:57;;;;;;;3.23;3.00;;;19.10;68.30;;;;;;5029484;28;20487;-44
2022/06/08 03:48:23;;;;;;;2.47;2.27;;;19.00;68.70;;;;;;5030300;28;20770;-43
2022/06/08 03:50:52;;;;;;;2.57;2.37;;;18.90;69.30;;;;;;5030407;28;20424;-48
2022/06/08 03:53:34;;;;;;;4.53;2.60;;;19.00;69.20;;;;;;5030656;28;20466;-44
2022/06/08 03:56:02;;;;;;;3.03;2.63;;;19.10;68.80;;;;;;5030066;28;20432;-45
2022/06/08 03:58:27;;;;;;;3.03;2.70;;;19.10;68.90;;;;;;5030452;28;20421;-44
2022/06/08 04:00:53;;;;;;;5.10;2.93;;;19.10;69.20;;;;;;5029689;28;20643;-44
2022/06/08 04:03:19;;;;;;;2.53;2.33;;;18.70;70.40;;;;;;5030228;28;20258;-43
2022/06/08 04:05:45;;;;;;;2.80;2.60;;;18.60;71.70;;;;;;5029960;28;20484;-45
2022/06/08 04:08:11;;;;;;;3.30;2.43;;;18.40;72.10;;;;;;5030566;28;20924;-44
2022/06/08 04:10:36;;;;;;;7.93;2.20;;;18.30;73.20;;;;;;5030356;28;20758;-44
2022/06/08 04:13:02;;;;;;;4.90;2.10;;;18.40;73.20;;;;;;5028398;28;20190;-44
2022/06/08 04:15:43;;;;;;;2.40;2.23;;;18.60;72.40;;;;;;5029926;28;20908;-44
2022/06/08 04:18:20;;;;;;;4.87;2.60;;;18.70;71.80;;;;;;5030262;28;20200;-44
2022/06/08 04:20:49;;;;;;;3.20;2.17;;;18.80;71.10;;;;;;5029976;28;20486;-43
2022/06/08 04:23:16;;;;;;;2.53;2.33;;;19.00;70.20;;;;;;5030322;28;20420;-43
2022/06/08 04:25:43;;;;;;;2.83;1.93;;;19.10;69.30;;;;;;5029860;28;20483;-44
2022/06/08 04:28:10;;;;;;;4.40;2.17;;;19.20;68.50;;;;;;5029932;28;20447;-44
2022/06/08 04:30:36;;;;;;;3.93;2.10;;;19.40;68.20;;;;;;5030323;28;20475;-43
2022/06/08 04:33:02;;;;;;;4.30;2.83;;;19.50;67.70;;;;;;5029863;28;20426;-44
2022/06/08 04:35:28;;;;;;;2.93;2.47;;;19.50;67.90;;;;;;5029926;28;20497;-43
2022/06/08 04:37:54;;;;;;;2.30;2.20;;;19.50;68.20;;;;;;5029562;28;20432;-43
2022/06/08 04:40:21;;;;;;;3.90;2.17;;;19.60;68.30;;;;;;5028341;28;20196;-43
2022/06/08 04:42:47;;;;;;;2.93;2.20;;;19.60;67.50;;;;;;5029778;28;20196;-43
2022/06/08 04:45:13;;;;;;;7.50;2.47;;;19.50;67.20;;;;;;5029485;28;20886;-44
2022/06/08 04:47:39;;;;;;;3.17;2.83;;;19.40;67.60;;;;;;5029499;28;20292;-43
2022/06/08 04:50:06;;;;;;;6.67;2.30;;;19.60;67.40;;;;;;5029737;28;20196;-43
2022/06/08 04:52:32;;;;;;;3.30;2.40;;;19.50;66.70;;;;;;5029557;28;20657;-43
2022/06/08 04:54:58;;;;;;;2.97;2.50;;;19.40;67.30;;;;;;5029476;28;20812;-43
2022/06/08 04:57:24;;;;;;;7.73;3.97;;;19.60;67.10;;;;;;5029245;28;20442;-43
2022/06/08 04:59:50;;;;;;;5.10;3.73;;;19.60;67.00;;;;;;5029897;28;20236;-43
2022/06/08 05:02:42;;;;;;;3.10;2.80;;;19.70;66.00;;;;;;5029264;28;20497;-44
2022/06/08 05:05:02;;;;;;;3.43;2.17;;;19.50;67.10;;;;;;5029326;28;20573;-43
2022/06/08 05:07:27;;;;;;;2.63;2.43;;;19.50;67.30;;;;;;5027806;28;20411;-43
2022/06/08 05:09:53;;;;;;;8.50;2.30;;;19.30;67.20;;;;;;5029892;28;20776;-43
2022/06/08 05:12:18;;;;;;;2.30;2.00;;;19.30;68.00;;;;;;5029194;28;20272;-43
2022/06/08 05:14:44;;;;;;;3.23;2.20;;;19.40;67.30;;;;;;5029355;28;20189;-46
2022/06/08 05:17:10;;;;;;;4.30;2.17;;;19.50;66.20;;;;;;5029068;28;20200;-44
2022/06/08 05:19:35;;;;;;;3.00;2.03;;;19.40;65.20;;;;;;5029858;28;20193;-43
2022/06/08 05:22:01;;;;;;;3.67;2.40;;;19.60;64.80;;;;;;5031813;28;20548;-44
2022/06/08 05:24:26;;;;;;;2.60;2.20;;;19.60;64.90;;;;;;5033098;28;20975;-43
2022/06/08 05:26:52;;;;;;;6.30;2.50;;;19.80;64.50;;;;;;5032760;28;20271;-43
2022/06/08 05:29:18;;;;;;;3.00;2.50;;;19.80;64.70;;;;;;5033605;28;20200;-44
2022/06/08 05:31:43;;;;;;;2.70;1.90;;;20.00;64.80;;;;;;5032808;28;20700;-43
2022/06/08 05:34:09;;;;;;;7.03;3.50;;;20.00;65.40;;;;;;5031171;28;20193;-43
2022/06/08 05:36:34;;;;;;;4.20;2.47;;;19.90;66.70;;;;;;5032864;28;20193;-43
2022/06/08 05:39:00;;;;;;;5.20;2.40;;;19.90;67.40;;;;;;5033418;28;20200;-45
2022/06/08 05:41:28;;;;;;;4.40;2.50;;;20.10;67.20;;;;;;5032549;28;20294;-43
2022/06/08 05:43:54;;;;;;;3.03;2.23;;;20.30;66.60;;;;;;5032780;28;20222;-43
2022/06/08 05:46:20;;;;;;;3.37;3.00;;;20.30;66.20;;;;;;5031572;28;20855;-45
2022/06/08 05:48:45;;;;;;;3.00;2.67;;;20.40;66.70;;;;;;5033337;28;20446;-43
2022/06/08 05:51:12;;;;;;;4.40;2.27;;;20.60;65.80;;;;;;5032515;28;20680;-43
2022/06/08 05:53:38;;;;;;;6.87;2.20;;;20.70;64.40;;;;;;5032583;28;20794;-43
2022/06/08 05:56:03;;;;;;;2.97;1.80;;;20.60;59.90;;;;;;5032127;28;20436;-43
2022/06/08 05:58:29;;;;;;;4.20;2.40;;;20.70;59.70;;;;;;5033088;28;20189;-44
2022/06/08 06:00:55;;;;;;;4.20;2.00;;;20.60;59.70;;;;;;5030445;28;20711;-43
2022/06/08 06:03:20;;;;;;;4.57;2.20;;;20.80;59.40;;;;;;5031377;28;20204;-47
2022/06/08 06:05:46;;;;;;;3.33;1.90;;;21.10;59.30;;;;;;5032001;28;20700;-44
2022/06/08 06:08:12;;;;;;;2.60;2.00;;;21.30;58.50;;;;;;5033147;28;20288;-44
2022/06/08 06:10:41;;;;;;;5.90;1.97;;;21.50;57.70;;;;;;5032709;28;20237;-43
2022/06/08 06:13:07;;;;;;;2.27;2.07;;;21.60;58.30;;;;;;5032087;28;20439;-44
2022/06/08 06:15:33;;;;;;;3.90;1.60;;;21.60;58.30;;;;;;5032405;28;20436;-45
2022/06/08 06:17:59;;;;;;;3.53;1.70;;;21.70;59.20;;;;;;5031858;28;20858;-43
2022/06/08 06:20:26;;;;;;;4.50;1.63;;;21.60;56.70;;;;;;5032550;28;20424;-43
2022/06/08 06:22:52;;;;;;;2.40;1.50;;;21.70;56.10;;;;;;5031846;28;20200;-44
2022/06/08 06:25:18;;;;;;;3.33;1.80;;;21.70;56.10;;;;;;5032082;28;21097;-44
2022/06/08 06:27:44;;;;;;;2.13;1.60;;;22.00;55.20;;;;;;5030056;28;20507;-44
2022/06/08 06:30:12;;;;;;;4.40;1.77;;;22.20;55.30;;;;;;5032185;28;21070;-44
2022/06/08 06:32:39;;;;;;;7.00;1.80;;;22.40;54.30;;;;;;5031425;28;20547;-45
2022/06/08 06:35:08;;;;;;;5.33;1.80;;;22.50;54.50;;;;;;5031946;28;20432;-44
2022/06/08 06:37:34;;;;;;;2.70;1.77;;;22.70;54.50;;;;;;5031779;28;20522;-44
2022/06/08 06:39:59;;;;;;;4.73;1.80;;;22.80;54.00;;;;;;5032011;28;20507;-45
2022/06/08 06:42:27;;;;;;;2.33;1.60;;;23.00;54.30;;;;;;5031271;28;20193;-44
2022/06/08 06:44:53;;;;;;;2.10;1.40;;;23.00;53.10;;;;;;5031460;28;20323;-44
2022/06/08 06:47:20;;;;;;;2.03;1.40;;;23.20;53.50;;;;;;5031633;28;20820;-44
2022/06/08 06:49:46;;;;;;;2.60;2.00;;;23.30;52.20;;;;;;5031988;28;20684;-44
2022/06/08 06:52:13;;;;;;;4.80;1.60;;;23.40;51.90;;;;;;5030275;28;20513;-44
2022/06/08 06:54:40;;;;;;;2.70;2.10;;;23.60;52.60;;;;;;5029523;28;20440;-44
2022/06/08 06:57:06;;;;;;;3.23;1.40;;;23.80;51.20;;;;;;5031369;28;20416;-44
2022/06/08 06:59:31;;;;;;;1.50;1.30;;;23.70;50.90;;;;;;5031414;28;20428;-44
2022/06/08 07:01:57;;;;;;;2.57;1.70;;;23.60;51.50;;;;;;5031174;28;20189;-44
2022/06/08 07:04:23;;;;;;;2.70;1.63;;;23.50;51.90;;;;;;5031116;28;20278;-45
2022/06/08 07:06:49;;;;;;;3.77;1.93;;;23.50;51.20;;;;;;5031247;28;20198;-44
2022/06/08 07:09:14;;;;;;;2.20;1.53;;;23.50;52.00;;;;;;5031371;28;20440;-43
2022/06/08 07:11:40;;;;;;;1.73;1.63;;;23.60;52.10;;;;;;5031220;28;20185;-44
2022/06/08 07:14:10;;;;;;;4.60;1.80;;;23.70;52.30;;;;;;5031146;28;20671;-44
2022/06/08 07:16:36;;;;;;;4.60;2.13;;;24.00;51.70;;;;;;5031146;28;20242;-45
2022/06/08 07:19:02;;;;;;;1.60;1.50;;;24.10;50.90;;;;;;5031591;28;21126;-44
2022/06/08 07:21:28;;;;;;;1.70;1.57;;;24.30;49.80;;;;;;5029288;28;20834;-44
2022/06/08 07:23:54;;;;;;;5.77;1.60;;;24.50;49.70;;;;;;5030911;28;20444;-44
2022/06/08 07:26:24;;;;;;;6.87;2.07;;;24.40;49.20;;;;;;5030834;28;20484;-44
2022/06/08 07:28:51;;;;;;;5.73;1.90;;;24.20;50.20;;;;;;5031095;28;21179;-45
2022/06/08 07:31:16;;;;;;;2.83;1.90;;;24.30;50.90;;;;;;5029542;28;20802;-44
2022/06/08 07:33:42;;;;;;;1.40;1.30;;;24.60;50.10;;;;;;5030473;28;20428;-44
2022/06/08 07:36:08;;;;;;;3.00;1.60;;;24.80;48.90;;;;;;5030417;28;20196;-44
2022/06/08 07:38:34;;;;;;;4.70;2.03;;;24.60;49.70;;;;;;5030912;28;20208;-43
2022/06/08 07:40:59;;;;;;;2.40;1.87;;;24.70;48.90;;;;;;5030473;28;20195;-45
2022/06/08 07:43:25;;;;;;;2.13;1.93;;;24.80;49.80;;;;;;5029892;28;20197;-44
2022/06/08 07:45:51;;;;;;;7.40;1.67;;;25.10;49.50;;;;;;5030412;28;20236;-45
2022/06/08 07:51:01;;;;;;;2.83;1.50;;;25.60;48.30;;;;;;5030698;28;20938;-44
2022/06/08 07:53:27;;;;;;;1.97;1.47;;;25.50;47.80;;;;;;5030119;28;20432;-45
2022/06/08 07:55:53;;;;;;;2.73;1.50;;;25.40;47.50;;;;;;5030131;28;20193;-44
2022/06/08 07:58:19;;;;;;;6.27;1.80;;;25.40;47.50;;;;;;5030618;28;20676;-44
2022/06/08 08:00:47;;;;;;;1.83;1.40;;;25.50;47.60;;;;;;5030207;28;20468;-46
2022/06/08 08:03:17;;;;;;;2.10;1.63;;;25.60;46.70;;;;;;5029782;28;20197;-44
2022/06/08 08:05:44;;;;;;;5.23;1.60;;;25.70;45.90;;;;;;5030090;28;20494;-44
2022/06/08 08:08:11;;;;;;;6.43;1.70;;;25.70;46.70;;;;;;5030244;28;20428;-44
2022/06/08 08:10:37;;;;;;;7.10;2.30;;;25.90;46.50;;;;;;5030546;28;20436;-44
2022/06/08 08:13:04;;;;;;;2.33;1.50;;;26.00;46.90;;;;;;5029478;28;20446;-44
2022/06/08 08:15:30;;;;;;;1.97;1.30;;;26.10;46.10;;;;;;5028527;28;20440;-44
2022/06/08 08:17:56;;;;;;;3.67;1.73;;;26.10;46.30;;;;;;5029754;28;20424;-45
2022/06/08 08:20:24;;;;;;;5.73;1.87;;;26.00;46.70;;;;;;5030264;28;20703;-44
2022/06/08 08:22:50;;;;;;;3.20;1.63;;;26.00;46.60;;;;;;5029563;28;20428;-45
2022/06/08 08:25:17;;;;;;;2.90;1.67;;;26.10;46.30;;;;;;5029800;28;20490;-44
2022/06/08 08:27:44;;;;;;;2.80;1.90;;;26.10;46.10;;;;;;5029592;28;20207;-44
2022/06/08 08:30:13;;;;;;;3.70;1.63;;;26.20;46.00;;;;;;5030279;28;20896;-45
2022/06/08 08:32:40;;;;;;;3.30;1.70;;;26.20;46.30;;;;;;5029190;28;20764;-49
2022/06/08 08:35:06;;;;;;;4.63;1.80;;;26.30;46.30;;;;;;5029514;28;20431;-49
2022/06/08 08:37:32;;;;;;;2.40;1.37;;;26.40;45.70;;;;;;5029781;28;20432;-49
2022/06/08 08:39:58;;;;;;;2.60;1.73;;;26.50;45.20;;;;;;5030007;28;20439;-44
2022/06/08 08:42:24;;;;;;;2.97;1.60;;;26.70;45.50;;;;;;5027669;28;20262;-48
2022/06/08 08:45:11;;;;;;;3.63;1.70;;;26.90;45.70;;;;;;5029597;28;20228;-49
2022/06/08 08:48:05;;;;;;;6.07;1.90;;;27.10;44.10;;;;;;5029421;28;20459;-45
2022/06/08 08:50:53;;;;;;;6.50;1.73;;;26.70;44.50;;;;;;5029643;28;20542;-44
2022/06/08 08:53:23;;;;;;;3.30;1.70;;;26.90;44.30;;;;;;5029565;28;20485;-46
2022/06/08 08:55:53;;;;;;;8.80;1.40;;;27.20;43.30;;;;;;5030406;28;20772;-44
2022/06/08 08:58:36;;;;;;;2.67;1.30;;;27.40;42.60;;;;;;5031564;28;20428;-48
2022/06/08 09:01:23;;;;;;;3.57;1.30;;;27.70;42.20;;;;;;5025734;28;21044;-45
2022/06/08 09:04:09;;;;;;;5.30;1.57;;;27.80;40.60;;;;;;5018256;28;20448;-44
2022/06/08 09:06:36;;;;;;;1.20;0.97;;;27.80;40.20;;;;;;5019035;28;20452;-43
2022/06/08 09:09:11;;;;;;;1.47;1.07;;;27.60;40.20;;;;;;5024037;28;20435;-43
2022/06/08 09:11:43;;;;;;;3.70;1.40;;;28.00;39.50;;;;;;5021391;28;20436;-47
2022/06/08 09:14:19;;;;;;;3.90;2.03;;;28.20;38.60;;;;;;5021428;28;20973;-47
2022/06/08 09:17:11;;;;;;;4.00;1.23;;;28.30;38.50;;;;;;5022599;28;20502;-45
2022/06/08 09:19:41;;;;;;;6.53;1.87;;;28.30;38.30;;;;;;5014223;28;20444;-48
2022/06/08 09:22:06;;;;;;;1.40;1.30;;;28.60;39.00;;;;;;5019764;28;20448;-47
2022/06/08 09:24:55;;;;;;;2.53;1.50;;;28.80;38.60;;;;;;5021562;28;20476;-48
2022/06/08 09:27:33;;;;;;;2.50;1.43;;;28.90;37.80;;;;;;5015181;28;20229;-46
2022/06/08 09:30:11;;;;;;;3.33;1.33;;;29.10;37.80;;;;;;5019407;28;20444;-44
2022/06/08 09:32:50;;;;;;;2.93;1.27;;;28.80;37.30;;;;;;5021001;28;20451;-45
2022/06/08 09:35:26;;;;;;;4.87;1.70;;;28.70;38.10;;;;;;5029351;28;21006;-44
2022/06/08 09:37:55;;;;;;;3.73;1.27;;;27.60;38.90;;;;;;5026967;28;20452;-48
2022/06/08 09:40:40;;;;;;;1.80;1.37;;;27.20;39.10;;;;;;5022275;28;20456;-45
2022/06/08 09:43:39;;;;;;;3.40;1.70;;;27.00;40.00;;;;;;5018930;28;20899;-45
2022/06/08 09:46:10;;;;;;;1.77;1.17;;;26.70;38.20;;;;;;5019190;28;20487;-44
2022/06/08 09:51:38;;;;;;;2.23;1.03;;;27.20;39.90;;;;;;5027173;28;20514;-47
2022/06/08 09:54:22;;;;;;;2.43;1.40;;;27.60;38.40;;;;;;5013552;28;20480;-45
2022/06/08 09:56:54;;;;;;;2.20;1.60;;;28.20;35.90;;;;;;5023079;28;20484;-46
2022/06/08 09:59:25;;;;;;;2.10;1.20;;;28.80;36.30;;;;;;5018606;28;20910;-45
2022/06/08 10:02:26;;;;;;;2.90;1.30;;;28.70;34.50;;;;;;5018053;28;20479;-47
2022/06/08 10:05:06;;;;;;;1.77;1.10;;;28.80;34.80;;;;;;5020567;28;20475;-45
2022/06/08 10:07:51;;;;;;;4.37;1.37;;;29.10;34.50;;;;;;5015702;28;20524;-45
2022/06/08 10:10:17;;;;;;;1.83;1.27;;;29.30;33.40;;;;;;5021465;28;20448;-45
2022/06/08 10:12:57;;;;;;;4.13;1.40;;;29.40;33.60;;;;;;5027706;28;20457;-44
2022/06/08 10:15:39;;;;;;;4.10;1.20;;;29.10;32.90;;;;;;5024614;28;20900;-44
2022/06/08 10:18:19;;;;;;;1.60;1.03;;;28.70;33.30;;;;;;5023016;28;20463;-44
2022/06/08 10:20:50;;;;;;;2.53;1.20;;;29.10;33.60;;;;;;5024006;28;20447;-45
2022/06/08 10:23:25;;;;;;;1.97;1.10;;;29.60;33.80;;;;;;5018399;28;20576;-44
2022/06/08 10:26:01;;;;;;;2.03;1.20;;;30.00;32.00;;;;;;5021341;28;21474;-45
2022/06/08 10:28:33;;;;;;;2.13;1.43;;;30.10;32.60;;;;;;5028966;28;20493;-44
2022/06/08 10:31:23;;;;;;;3.00;1.37;;;29.90;32.10;;;;;;5021377;28;20591;-47
2022/06/08 10:34:12;;;;;;;1.80;1.27;;;30.00;32.80;;;;;;5016185;28;20454;-44
2022/06/08 10:36:40;;;;;;;3.70;1.50;;;30.20;32.50;;;;;;5019488;28;20504;-45
2022/06/08 10:39:08;;;;;;;1.83;1.13;;;30.20;32.00;;;;;;5023419;28;20931;-47
2022/06/08 10:44:35;;;;;;;3.07;1.20;;;29.90;33.10;;;;;;5014302;28;20482;-44
2022/06/08 10:47:37;;;;;;;1.70;1.50;;;29.70;33.60;;;;;;5026877;28;20566;-44
2022/06/08 10:50:03;;;;;;;1.40;1.20;;;29.80;33.60;;;;;;5024502;28;20450;-47
2022/06/08 10:52:43;;;;;;;3.23;1.17;;;29.90;33.60;;;;;;5015034;28;20510;-45
2022/06/08 10:55:17;;;;;;;4.53;1.00;;;29.90;34.10;;;;;;5017791;28;20535;-44
2022/06/08 10:57:52;;;;;;;2.10;1.27;;;29.90;32.50;;;;;;5016678;28;20555;-44
2022/06/08 11:00:24;;;;;;;2.83;1.53;;;29.90;31.80;;;;;;5027727;28;20475;-44
2022/06/08 11:02:59;;;;;;;1.37;1.10;;;30.00;30.90;;;;;;5024709;28;20456;-44
2022/06/08 11:05:31;;;;;;;1.87;1.00;;;30.00;31.30;;;;;;5021731;28;21011;-44
2022/06/08 11:08:00;;;;;;;2.70;1.10;;;30.20;30.70;;;;;;5026837;28;20444;-44
2022/06/08 11:10:44;;;;;;;1.70;1.17;;;30.50;30.30;;;;;;5026692;28;20464;-44
2022/06/08 11:13:25;;;;;;;2.20;1.00;;;30.70;29.80;;;;;;5023465;28;20856;-45
2022/06/08 11:16:03;;;;;;;2.87;1.33;;;30.80;29.80;;;;;;5019377;28;20490;-44
2022/06/08 11:18:37;;;;;;;1.90;1.20;;;30.90;29.50;;;;;;5029154;28;20447;-44
2022/06/08 11:21:15;;;;;;;1.50;1.20;;;30.80;29.00;;;;;;5023090;28;20462;-46
2022/06/08 11:23:50;;;;;;;1.57;1.30;;;31.10;29.10;;;;;;5019456;28;21263;-44
2022/06/08 11:26:23;;;;;;;1.33;1.00;;;31.20;29.20;;;;;;5026215;28;20573;-47
2022/06/08 11:28:53;;;;;;;1.60;1.10;;;31.20;29.10;;;;;;5022244;28;20452;-46
2022/06/08 11:31:25;;;;;;;2.30;1.13;;;31.50;29.20;;;;;;5016026;28;20456;-45
2022/06/08 11:34:18;;;;;;;2.80;1.43;;;31.70;29.30;;;;;;5024711;28;20493;-46
2022/06/08 11:36:47;;;;;;;3.20;1.13;;;31.80;28.90;;;;;;5023020;28;20450;-45
2022/06/08 11:39:27;;;;;;;1.20;0.97;;;31.90;29.00;;;;;;5021603;28;20451;-44
2022/06/08 11:42:22;;;;;;;2.10;1.50;;;32.00;28.40;;;;;;5024536;28;20485;-45
2022/06/08 11:45:15;;;;;;;3.67;1.03;;;32.10;28.20;;;;;;5017838;28;21048;-47
2022/06/08 11:48:09;;;;;;;3.10;1.37;;;32.10;28.50;;;;;;5024814;28;20966;-46
2022/06/08 11:50:51;;;;;;;3.63;1.20;;;31.90;28.30;;;;;;5016384;28;20455;-45
2022/06/08 11:53:18;;;;;;;2.47;1.13;;;31.70;28.00;;;;;;5014324;28;20479;-45
2022/06/08 11:55:56;;;;;;;1.30;1.17;;;31.50;27.20;;;;;;5017674;28;20451;-46
2022/06/08 11:58:28;;;;;;;2.20;1.00;;;31.40;27.70;;;;;;5014837;28;20447;-45
2022/06/08 12:00:59;;;;;;;5.17;1.30;;;31.30;27.80;;;;;;5018874;28;20476;-44
2022/06/08 12:03:45;;;;;;;3.63;1.00;;;31.60;27.80;;;;;;5015817;28;20833;-47
2022/06/08 12:06:14;;;;;;;1.87;1.10;;;31.80;27.10;;;;;;5021822;28;21034;-45
2022/06/08 12:08:44;;;;;;;1.67;1.33;;;31.90;27.00;;;;;;5026660;28;20451;-44
2022/06/08 12:11:17;;;;;;;1.57;1.00;;;31.70;27.80;;;;;;5016888;28;20475;-46
2022/06/08 12:14:13;;;;;;;1.33;1.17;;;31.00;28.00;;;;;;5026879;28;20559;-46
2022/06/08 12:17:00;;;;;;;9.50;1.43;;;30.70;28.80;;;;;;5017872;28;20448;-45
2022/06/08 12:19:40;;;;;;;1.00;0.90;;;30.80;28.80;;;;;;5021652;28;20437;-47
2022/06/08 12:22:10;;;;;;;2.80;1.40;;;30.60;29.90;;;;;;5018190;28;21209;-45
2022/06/08 12:24:36;;;;;;;2.70;1.40;;;30.80;29.50;;;;;;5013571;28;20472;-48
2022/06/08 12:27:23;;;;;;;2.80;1.37;;;30.90;29.30;;;;;;5012163;28;20773;-47
2022/06/08 12:29:59;;;;;;;1.83;1.17;;;30.90;29.40;;;;;;5022302;28;20590;-46
2022/06/08 12:32:36;;;;;;;1.50;1.17;;;31.00;28.90;;;;;;5017310;28;20435;-46
2022/06/08 12:35:04;;;;;;;2.60;1.30;;;30.50;29.40;;;;;;5027196;28;20440;-50
2022/06/08 12:37:37;;;;;;;4.50;1.20;;;30.20;28.90;;;;;;5024603;28;20467;-49
2022/06/08 12:40:17;;;;;;;2.70;1.07;;;30.60;29.20;;;;;;5020796;28;20528;-45
2022/06/08 12:42:53;;;;;;;2.37;1.70;;;30.50;29.50;;;;;;5009061;28;20460;-46
2022/06/08 12:45:27;;;;;;;1.53;1.07;;;29.80;29.50;;;;;;5022248;28;20543;-45
2022/06/08 12:47:52;;;;;;;4.40;1.70;;;29.70;30.80;;;;;;5018065;28;20523;-45
2022/06/08 12:50:25;;;;;;;3.47;1.20;;;29.80;30.60;;;;;;5021318;28;20935;-47
2022/06/08 12:52:52;;;;;;;1.50;1.20;;;30.10;29.80;;;;;;5022791;28;20278;-47
2022/06/08 12:55:23;;;;;;;1.50;0.97;;;30.30;28.70;;;;;;5019459;28;20514;-44
2022/06/08 12:57:50;;;;;;;2.97;1.33;;;30.50;28.60;;;;;;5019462;28;20438;-43
2022/06/08 13:00:22;;;;;;;3.80;1.10;;;30.70;27.90;;;;;;5023067;28;20475;-46
2022/06/08 13:02:50;;;;;;;1.17;1.07;;;30.90;28.40;;;;;;5024171;28;20448;-43
2022/06/08 13:05:16;;;;;;;2.07;1.40;;;31.00;28.10;;;;;;5026666;28;20574;-46
2022/06/08 13:07:42;;;;;;;3.33;1.20;;;31.00;27.60;;;;;;5020079;28;20448;-44
2022/06/08 13:10:07;;;;;;;2.10;1.10;;;31.00;28.20;;;;;;5017178;28;20189;-44
2022/06/08 13:12:37;;;;;;;4.20;1.10;;;30.80;27.80;;;;;;5014172;28;20446;-46
2022/06/08 13:15:03;;;;;;;2.33;1.13;;;30.70;28.40;;;;;;5014910;28;20637;-44
2022/06/08 13:17:30;;;;;;;1.27;1.03;;;30.60;28.50;;;;;;5019221;28;20440;-43
2022/06/08 13:19:58;;;;;;;1.30;1.20;;;30.30;28.40;;;;;;5015873;28;20530;-44
2022/06/08 13:22:26;;;;;;;1.23;1.00;;;30.10;29.60;;;;;;5018508;28;20475;-44
2022/06/08 13:24:52;;;;;;;1.73;1.00;;;30.10;29.20;;;;;;5019661;28;20517;-44